• Join FlightAware (Why Join?)
  • Login
  • US Flag 
04:21PM EDT


 

Airport Tracker/Info


-or-


 

Live Flight TrackerFlight Track Log ✈ N650SG ✈ 22-Aug-2013 ✈ KMTN - 5B2

Flight Track Log - Related Links

Times and Time Zones

All times are in EDT time to prevent confusion due to time zone crossing. See the N650SG flight status page for this flight to view local times or setup timezone preferences in your user account.

Time Position Orientation Groundspeed Altitude Reporting Facility
EDT Latitude Longitude Course Direction KTS MPH feet Rate Location/Type
10:19AM 39.2833 -76.3667 169° South 227 261 1,300  Level Potomac TRACON
10:20AM 39.2167 -76.3500 169° South 278 320 2,600 1,860 Climbing Potomac TRACON
10:21AM 39.1322 -76.3061 158° South 291 335 5,500 2,280 Climbing Washington Center
10:22AM 39.1389 -76.2044 85° East 321 369 7,800 2,280 Climbing Washington Center
10:23AM 39.1542 -76.1028 79° East 326 375 10,100 2,280 Climbing Washington Center
10:24AM 39.1711 -75.9931 79° East 321 369 12,500 1,920 Climbing Washington Center
10:25AM 39.1944 -75.8808 75° East 316 364 14,000 1,320 Climbing Washington Center
10:26AM 39.2611 -75.7900 47° Northeast 321 369 15,200 1,140 Climbing Washington Center
10:27AM 39.3364 -75.6961 44° Northeast 344 396 16,400 1,140 Climbing Washington Center
10:29AM 39.4281 -75.5781 45° Northeast 368 423 17,800 1,140 Climbing Washington Center
10:30AM 39.5008 -75.4814 46° Northeast 378 435 18,900 1,140 Climbing Washington Center
10:31AM 39.5781 -75.3814 45° Northeast 383 441 20,100 1,260 Climbing Washington Center
10:32AM 39.7222 -75.1864 46° Northeast 377 434 22,500 1,080 Climbing New York Center
10:33AM 39.7817 -75.1036 47° Northeast 391 450 23,200 900 Climbing New York Center
10:34AM 39.8778 -74.9825 44° Northeast 391 450 24,300 720 Climbing New York Center
10:35AM 39.9669 -74.8769 42° Northeast 400 460 24,700 300 Climbing New York Center
10:36AM 40.0517 -74.7789 42° Northeast 412 474 25,000 120 Climbing New York Center
10:37AM 40.1408 -74.6700 43° Northeast 417 480 25,000  Level New York Center
10:38AM 40.2319 -74.5581 43° Northeast 429 494 25,000  Level New York Center
10:39AM 40.3125 -74.4564 44° Northeast 436 502 25,000  Level New York Center
10:40AM 40.4033 -74.3414 44° Northeast 436 502 25,000  Level New York Center
10:41AM 40.4942 -74.2314 43° Northeast 436 502 25,000  Level New York Center
10:44AM 40.8158 -74.0169 27° Northeast 448 516 25,000  Level Boston Center
10:45AM 40.9314 -73.9567 22° Northeast 448 516 25,000  Level Boston Center
10:46AM 41.0489 -73.8933 22° Northeast 448 516 25,000  Level Boston Center
10:47AM 41.1683 -73.8353 20° North 454 522 25,000  Level Boston Center
10:48AM 41.2878 -73.7856 17° North 454 522 25,000 -480 Level Boston Center
10:49AM 41.4131 -73.7769 North 445 512 24,100 -1,680 Descending Boston Center
10:50AM 41.5317 -73.7878 356° North 438 504 21,700 -2,880 Descending Boston Center
10:51AM 41.6419 -73.7903 359° North 408 470 18,400 -3,300 Descending Boston Center
10:52AM 41.7650 -73.7928 359° North 401 461 15,200 -2,460 Descending Boston Center
10:53AM 41.8631 -73.7919 360° North 394 453 13,600 -2,100 Descending Boston Center
10:54AM 41.9233 -73.7933 359° North 382 440 12,100 -2,220 Descending Boston Center
10:54AM 41.9775 -73.7944 359° North 382 440 11,400 -840 Descending Boston Center
10:55AM 42.0631 -73.7964 359° North 376 433 11,000 -240 Descending Boston Center
10:56AM 42.1692 -73.7986 359° North 364 419 11,000 -180 Level Boston Center
10:57AM 42.2567 -73.8006 359° North 365 420 10,700 -1,080 Descending Boston Center
10:58AM 42.3650 -73.8031 359° North 329 379 8,900 -1,680 Descending Boston Center
10:59AM 42.4653 -73.8022 360° North 319 367 7,000 -900 Descending Boston Center
11:00AM 42.5464 -73.8042 359° North 302 348 7,000 -180 Level Boston Center
11:01AM 42.6339 -73.8031 North 300 345 6,700 -1,080 Descending Boston Center
11:02AM 42.7111 -73.8078 357° North 285 328 4,900 -1,380 Descending Boston Center
11:03AM 42.7819 -73.8064 North 287 330 4,000 -660 Descending Boston Center
11:04AM 42.8528 -73.8164 354° North 267 307 3,700 -600 Descending Boston Center
11:05AM 42.9131 -73.8292 351° North 233 268 2,900 -780 Descending Boston Center
11:06AM 42.9817 -73.8336 357° North 228 262 2,200 -480 Descending Boston Center
11:07AM 43.0300 -73.7919 32° Northeast 197 227 2,000 -240 Descending Boston Center
11:08AM 43.0678 -73.7731 20° North 175 201 1,800 -240 Descending Boston Center
11:10AM 43.0500 -73.8500 255° West  Level FlightAware Approximate
11:17AM 43.0507 -73.8616 255° West  Level Estimated
11:18AM 43.0507 -73.8616 255° West  Level Estimated
11:19AM 43.0507 -73.8616 255° West  Level Estimated
11:20AM 43.0507 -73.8616 255° West  Level Estimated
11:21AM 43.0507 -73.8616 255° West  Level Estimated
11:22AM 43.0507 -73.8616 255° West  Level Estimated
11:23AM 43.0507 -73.8616 255° West  Level Estimated
11:24AM 43.0507 -73.8616 255° West  Level Estimated